St Solene — FVDG — position and weather

sailwx.info

Track history (hours):
 
Tides and Currents Weather Stations Pressure Air Temp Water Temp Dewpoint Dewpoint Depression Visibility Wind Speed Wind Dir Waves Ship Positions

St Solene

Last reported at 2015-Mar-27 01:33 UTC. Time now 2015-Mar-27 01:56 UTC.
Position N 43°24' E 004°60'.

Length 104 m; draft 6.8 m.

Type: Tanker. MMSI: 226302000.

Date/timePositionNaut miles runAvg speedWind from/ knotsBaromVisibWave heightAir tempDewpointWater temp
2015-Mar-27 01:33N 43°24' E 004°60'0 0.0
2015-Mar-27 00:33N 43°24' E 004°60'0 0.0
2015-Mar-26 23:33N 43°24' E 004°60'0 0.0
2015-Mar-26 22:30N 43°24' E 004°60'0 0.0
2015-Mar-26 21:27N 43°24' E 004°60'0 0.0
2015-Mar-26 20:15N 43°24' E 004°60'0 0.0
2015-Mar-26 19:27N 43°24' E 004°60'0 0.0
2015-Mar-26 18:33N 43°24' E 004°60'0 0.0
2015-Mar-26 17:33N 43°24' E 004°60'0 0.0
2015-Mar-26 16:27N 43°24' E 004°60'2 1.9
2015-Mar-26 15:33N 43°23' E 004°57'4 3.3
2015-Mar-26 14:28N 43°25' E 004°53'0 0.0
2015-Mar-26 13:22N 43°25' E 004°53'0 0.0
2015-Mar-26 12:28N 43°25' E 004°53'0 0.0
2015-Mar-26 11:22N 43°25' E 004°53'0 0.0
2015-Mar-26 10:31N 43°25' E 004°53'0 0.0
2015-Mar-26 09:28N 43°25' E 004°53'0 0.0
2015-Mar-26 08:25N 43°25' E 004°53'0 0.0
2015-Mar-26 07:22N 43°25' E 004°53'0 0.0
2015-Mar-26 06:31N 43°25' E 004°53'0 0.0
2015-Mar-26 05:22N 43°25' E 004°53'0 0.0
2015-Mar-26 04:28N 43°25' E 004°53'0 0.0
2015-Mar-26 03:28N 43°25' E 004°53'0 0.0
2015-Mar-26 02:28N 43°25' E 004°53'0 0.0
2015-Mar-26 01:28N 43°25' E 004°53'0 0.0
2015-Mar-26 00:28N 43°25' E 004°53'0 0.0
2015-Mar-25 23:28N 43°25' E 004°53'0 0.0
2015-Mar-25 22:31N 43°25' E 004°53'0 0.0
2015-Mar-25 21:22N 43°25' E 004°53'0 0.0
2015-Mar-25 20:28N 43°25' E 004°53'0 0.0
2015-Mar-25 19:22N 43°25' E 004°53'0 0.0
2015-Mar-25 18:16N 43°25' E 004°53'0 0.0
2015-Mar-25 17:28N 43°25' E 004°53'0 0.0
2015-Mar-25 16:28N 43°25' E 004°53'0 0.0
2015-Mar-25 15:22N 43°25' E 004°53'0 0.0
2015-Mar-25 14:28N 43°25' E 004°53'0 0.0
2015-Mar-25 13:28N 43°25' E 004°53'0 0.0
2015-Mar-25 12:28N 43°25' E 004°53'0 0.0
2015-Mar-25 11:28N 43°25' E 004°53'0 0.0
2015-Mar-25 10:22N 43°25' E 004°53'0 0.0
2015-Mar-25 09:28N 43°25' E 004°53'0 0.0
2015-Mar-25 08:28N 43°25' E 004°53'0 0.0
2015-Mar-25 07:28N 43°25' E 004°53'0 0.0
2015-Mar-25 06:22N 43°25' E 004°53'0 0.0
2015-Mar-25 05:28N 43°25' E 004°53'0 0.0
2015-Mar-25 04:28N 43°25' E 004°53'0 0.0
2015-Mar-25 03:31N 43°25' E 004°53'0 0.0
2015-Mar-25 02:28N 43°25' E 004°53'0 0.0
2015-Mar-25 01:22N 43°25' E 004°53'0 0.1
2015-Mar-25 00:33N 43°25' E 004°53'7 6.7
2015-Mar-24 23:33N 43°20' E 004°59'8 7.8
2015-Mar-24 22:31N 43°12' E 004°58'4112.3
2015-Mar-24 19:13N 43°17' E 004°02'711.4
2015-Mar-24 18:33N 43°18' E 003°52'9 8.9
2015-Mar-24 17:33N 43°24' E 003°43'0 0.2
2015-Mar-24 15:18N 43°24' E 003°43'0 0.0
2015-Mar-24 14:18N 43°24' E 003°43'0 0.0
2015-Mar-24 13:12N 43°24' E 003°43'0 0.0
2015-Mar-24 12:05N 43°24' E 003°43'0 0.0
2015-Mar-24 11:18N 43°24' E 003°43'0 0.0
2015-Mar-24 10:18N 43°24' E 003°43'0 0.0
2015-Mar-23 18:03N 43°24' E 003°43'0 0.0
2015-Mar-23 17:06N 43°24' E 003°43'0 0.0
2015-Mar-23 16:21N 43°24' E 003°43'0 0.0
2015-Mar-23 15:30N 43°24' E 003°43'0 0.0
2015-Mar-23 14:19N 43°24' E 003°43'0 0.0
2015-Mar-23 12:30N 43°24' E 003°43'0 0.0
2015-Mar-23 11:09N 43°24' E 003°43'0 0.0
2015-Mar-23 10:18N 43°24' E 003°43'0 0.0
2015-Mar-23 09:12N 43°24' E 003°43'0 0.0
2015-Mar-23 06:30N 43°24' E 003°43'0 0.0
2015-Mar-22 21:27N 43°24' E 003°43'0 0.0
2015-Mar-22 20:28N 43°24' E 003°43'0 0.0
2015-Mar-22 19:18N 43°24' E 003°43'0 0.0
2015-Mar-22 18:30N 43°24' E 003°43'0 0.0
2015-Mar-22 17:25N 43°24' E 003°43'0 0.0
2015-Mar-22 16:31N 43°24' E 003°43'0 0.0
2015-Mar-22 14:33N 43°24' E 003°43'0 0.0
2015-Mar-22 13:27N 43°24' E 003°43'0 0.0
2015-Mar-22 12:03N 43°24' E 003°43'0 0.0
2015-Mar-22 11:12N 43°24' E 003°43'0 0.0
2015-Mar-22 10:26N 43°24' E 003°43'0 0.0
2015-Mar-22 09:27N 43°24' E 003°43'0 0.0
2015-Mar-22 00:33N 43°24' E 003°43'0 0.0
2015-Mar-21 16:19N 43°24' E 003°43'0 0.0
2015-Mar-21 15:18N 43°24' E 003°43'0 0.0
2015-Mar-21 14:31N 43°24' E 003°43'2 0.6
2015-Mar-21 12:04N 43°23' E 003°45'2 0.4
2015-Mar-21 08:05N 43°22' E 003°43'0 0.0
2015-Mar-20 22:32N 43°22' E 003°44'0 0.1
2015-Mar-20 20:20N 43°22' E 003°44'6 7.8
2015-Mar-20 19:32N 43°19' E 003°51'1111.0
2015-Mar-20 18:33N 43°16' E 004°05'1411.7
2015-Mar-20 17:22N 43°13' E 004°24'1111.8
2015-Mar-20 16:26N 43°11' E 004°39'1010.9
2015-Mar-20 15:33N 43°09' E 004°51'1111.0
2015-Mar-20 14:32N 43°06' E 005°06'1411.3
2015-Mar-20 13:20N 43°04' E 005°25'1211.7
2015-Mar-20 12:17N 43°01' E 005°41'911.3
2015-Mar-20 11:28N 42°59' E 005°53'2411.9
2015-Mar-20 09:29N 42°57' E 006°26'1213.5
2015-Mar-20 08:33N 42°58' E 006°43'1313.5
2015-Mar-20 07:33N 42°59' E 007°01'1313.2
2015-Mar-20 06:33N 42°60' E 007°19'1613.0
2015-Mar-20 05:21N 43°01' E 007°40'1413.0
2015-Mar-20 04:18N 43°02' E 007°59'1013.1
2015-Mar-20 03:33N 43°03' E 008°12'1313.2
2015-Mar-20 02:33N 43°04' E 008°30'1313.1
2015-Mar-20 01:33N 43°05' E 008°48'1312.9
2015-Mar-20 00:31N 43°06' E 009°06'1312.7
2015-Mar-19 23:29N 43°07' E 009°25'1612.5
2015-Mar-19 22:14N 42°54' E 009°35'2111.8
2015-Mar-19 20:30N 42°33' E 009°33'  
2015-Mar-17 15:24N 42°57' E 007°17'6 6.9
2015-Mar-17 14:33N 42°57' E 007°09'7 6.6
2015-Mar-17 13:33N 42°56' E 007°01'6 6.3
2015-Mar-17 12:33N 42°55' E 006°52'6 6.4
2015-Mar-17 11:33N 42°54' E 006°43'6 6.2
2015-Mar-17 10:33N 42°53' E 006°35'64 7.7
2015-Mar-17 02:13N 43°07' E 005°10'811.9
2015-Mar-17 01:34N 43°12' E 005°01'  
Track history (hours):
 
Tides and Currents Weather Stations Pressure Air Temp Water Temp Dewpoint Dewpoint Depression Visibility Wind Speed Wind Dir Waves Ship Positions

St Solene

Last reported at 2015-Mar-27 01:33 UTC. Time now 2015-Mar-27 01:56 UTC.
Position N 43°24' E 004°60'.

Length 104 m; draft 6.8 m.

Type: Tanker. MMSI: 226302000.

Date/timePositionNaut miles runAvg speedWind from/ knotsBaromVisibWave heightAir tempDewpointWater temp
2015-Mar-27 01:33N 43°24' E 004°60'0 0.0
2015-Mar-27 00:33N 43°24' E 004°60'0 0.0
2015-Mar-26 23:33N 43°24' E 004°60'0 0.0
2015-Mar-26 22:30N 43°24' E 004°60'0 0.0
2015-Mar-26 21:27N 43°24' E 004°60'0 0.0
2015-Mar-26 20:15N 43°24' E 004°60'0 0.0
2015-Mar-26 19:27N 43°24' E 004°60'0 0.0
2015-Mar-26 18:33N 43°24' E 004°60'0 0.0
2015-Mar-26 17:33N 43°24' E 004°60'0 0.0
2015-Mar-26 16:27N 43°24' E 004°60'2 1.9
2015-Mar-26 15:33N 43°23' E 004°57'4 3.3
2015-Mar-26 14:28N 43°25' E 004°53'0 0.0
2015-Mar-26 13:22N 43°25' E 004°53'0 0.0
2015-Mar-26 12:28N 43°25' E 004°53'0 0.0
2015-Mar-26 11:22N 43°25' E 004°53'0 0.0
2015-Mar-26 10:31N 43°25' E 004°53'0 0.0
2015-Mar-26 09:28N 43°25' E 004°53'0 0.0
2015-Mar-26 08:25N 43°25' E 004°53'0 0.0
2015-Mar-26 07:22N 43°25' E 004°53'0 0.0
2015-Mar-26 06:31N 43°25' E 004°53'0 0.0
2015-Mar-26 05:22N 43°25' E 004°53'0 0.0
2015-Mar-26 04:28N 43°25' E 004°53'0 0.0
2015-Mar-26 03:28N 43°25' E 004°53'0 0.0
2015-Mar-26 02:28N 43°25' E 004°53'0 0.0
2015-Mar-26 01:28N 43°25' E 004°53'0 0.0
2015-Mar-26 00:28N 43°25' E 004°53'0 0.0
2015-Mar-25 23:28N 43°25' E 004°53'0 0.0
2015-Mar-25 22:31N 43°25' E 004°53'0 0.0
2015-Mar-25 21:22N 43°25' E 004°53'0 0.0
2015-Mar-25 20:28N 43°25' E 004°53'0 0.0
2015-Mar-25 19:22N 43°25' E 004°53'0 0.0
2015-Mar-25 18:16N 43°25' E 004°53'0 0.0
2015-Mar-25 17:28N 43°25' E 004°53'0 0.0
2015-Mar-25 16:28N 43°25' E 004°53'0 0.0
2015-Mar-25 15:22N 43°25' E 004°53'0 0.0
2015-Mar-25 14:28N 43°25' E 004°53'0 0.0
2015-Mar-25 13:28N 43°25' E 004°53'0 0.0
2015-Mar-25 12:28N 43°25' E 004°53'0 0.0
2015-Mar-25 11:28N 43°25' E 004°53'0 0.0
2015-Mar-25 10:22N 43°25' E 004°53'0 0.0
2015-Mar-25 09:28N 43°25' E 004°53'0 0.0
2015-Mar-25 08:28N 43°25' E 004°53'0 0.0
2015-Mar-25 07:28N 43°25' E 004°53'0 0.0
2015-Mar-25 06:22N 43°25' E 004°53'0 0.0
2015-Mar-25 05:28N 43°25' E 004°53'0 0.0
2015-Mar-25 04:28N 43°25' E 004°53'0 0.0
2015-Mar-25 03:31N 43°25' E 004°53'0 0.0
2015-Mar-25 02:28N 43°25' E 004°53'0 0.0
2015-Mar-25 01:22N 43°25' E 004°53'0 0.1
2015-Mar-25 00:33N 43°25' E 004°53'7 6.7
2015-Mar-24 23:33N 43°20' E 004°59'8 7.8
2015-Mar-24 22:31N 43°12' E 004°58'4112.3
2015-Mar-24 19:13N 43°17' E 004°02'711.4
2015-Mar-24 18:33N 43°18' E 003°52'9 8.9
2015-Mar-24 17:33N 43°24' E 003°43'0 0.2
2015-Mar-24 15:18N 43°24' E 003°43'0 0.0
2015-Mar-24 14:18N 43°24' E 003°43'0 0.0
2015-Mar-24 13:12N 43°24' E 003°43'0 0.0
2015-Mar-24 12:05N 43°24' E 003°43'0 0.0
2015-Mar-24 11:18N 43°24' E 003°43'0 0.0
2015-Mar-24 10:18N 43°24' E 003°43'0 0.0
2015-Mar-23 18:03N 43°24' E 003°43'0 0.0
2015-Mar-23 17:06N 43°24' E 003°43'0 0.0
2015-Mar-23 16:21N 43°24' E 003°43'0 0.0
2015-Mar-23 15:30N 43°24' E 003°43'0 0.0
2015-Mar-23 14:19N 43°24' E 003°43'0 0.0
2015-Mar-23 12:30N 43°24' E 003°43'0 0.0
2015-Mar-23 11:09N 43°24' E 003°43'0 0.0
2015-Mar-23 10:18N 43°24' E 003°43'0 0.0
2015-Mar-23 09:12N 43°24' E 003°43'0 0.0
2015-Mar-23 06:30N 43°24' E 003°43'0 0.0
2015-Mar-22 21:27N 43°24' E 003°43'0 0.0
2015-Mar-22 20:28N 43°24' E 003°43'0 0.0
2015-Mar-22 19:18N 43°24' E 003°43'0 0.0
2015-Mar-22 18:30N 43°24' E 003°43'0 0.0
2015-Mar-22 17:25N 43°24' E 003°43'0 0.0
2015-Mar-22 16:31N 43°24' E 003°43'0 0.0
2015-Mar-22 14:33N 43°24' E 003°43'0 0.0
2015-Mar-22 13:27N 43°24' E 003°43'0 0.0
2015-Mar-22 12:03N 43°24' E 003°43'0 0.0
2015-Mar-22 11:12N 43°24' E 003°43'0 0.0
2015-Mar-22 10:26N 43°24' E 003°43'0 0.0
2015-Mar-22 09:27N 43°24' E 003°43'0 0.0
2015-Mar-22 00:33N 43°24' E 003°43'0 0.0
2015-Mar-21 16:19N 43°24' E 003°43'0 0.0
2015-Mar-21 15:18N 43°24' E 003°43'0 0.0
2015-Mar-21 14:31N 43°24' E 003°43'2 0.6
2015-Mar-21 12:04N 43°23' E 003°45'2 0.4
2015-Mar-21 08:05N 43°22' E 003°43'0 0.0
2015-Mar-20 22:32N 43°22' E 003°44'0 0.1
2015-Mar-20 20:20N 43°22' E 003°44'6 7.8
2015-Mar-20 19:32N 43°19' E 003°51'1111.0
2015-Mar-20 18:33N 43°16' E 004°05'1411.7
2015-Mar-20 17:22N 43°13' E 004°24'1111.8
2015-Mar-20 16:26N 43°11' E 004°39'1010.9
2015-Mar-20 15:33N 43°09' E 004°51'1111.0
2015-Mar-20 14:32N 43°06' E 005°06'1411.3
2015-Mar-20 13:20N 43°04' E 005°25'1211.7
2015-Mar-20 12:17N 43°01' E 005°41'911.3
2015-Mar-20 11:28N 42°59' E 005°53'2411.9
2015-Mar-20 09:29N 42°57' E 006°26'1213.5
2015-Mar-20 08:33N 42°58' E 006°43'1313.5
2015-Mar-20 07:33N 42°59' E 007°01'1313.2
2015-Mar-20 06:33N 42°60' E 007°19'1613.0
2015-Mar-20 05:21N 43°01' E 007°40'1413.0
2015-Mar-20 04:18N 43°02' E 007°59'1013.1
2015-Mar-20 03:33N 43°03' E 008°12'1313.2
2015-Mar-20 02:33N 43°04' E 008°30'1313.1
2015-Mar-20 01:33N 43°05' E 008°48'1312.9
2015-Mar-20 00:31N 43°06' E 009°06'1312.7
2015-Mar-19 23:29N 43°07' E 009°25'1612.5
2015-Mar-19 22:14N 42°54' E 009°35'2111.8
2015-Mar-19 20:30N 42°33' E 009°33'  
2015-Mar-17 15:24N 42°57' E 007°17'6 6.9
2015-Mar-17 14:33N 42°57' E 007°09'7 6.6
2015-Mar-17 13:33N 42°56' E 007°01'6 6.3
2015-Mar-17 12:33N 42°55' E 006°52'6 6.4
2015-Mar-17 11:33N 42°54' E 006°43'6 6.2
2015-Mar-17 10:33N 42°53' E 006°35'64 7.7
2015-Mar-17 02:13N 43°07' E 005°10'811.9
2015-Mar-17 01:34N 43°12' E 005°01'  

Dump ship's entire track history